sensor_id;sensor_type;location;lat;lon;timestamp;pressure;altitude;pressure_sealevel;temperature;humidity
52653;BME280;39353;42.864;12.014;2023-12-22T00:01:59;96467.89;;;21.57;47.18
52653;BME280;39353;42.864;12.014;2023-12-22T00:04:26;96470.06;;;21.56;47.02
52653;BME280;39353;42.864;12.014;2023-12-22T00:06:53;96479.22;;;21.54;47.21
52653;BME280;39353;42.864;12.014;2023-12-22T00:09:21;96497.73;;;21.54;47.15
52653;BME280;39353;42.864;12.014;2023-12-22T00:11:48;96510.98;;;21.53;47.18
52653;BME280;39353;42.864;12.014;2023-12-22T00:14:16;96509.34;;;21.52;47.02
52653;BME280;39353;42.864;12.014;2023-12-22T00:16:43;96496.81;;;21.52;47.06
52653;BME280;39353;42.864;12.014;2023-12-22T00:19:10;96495.16;;;21.50;47.05
52653;BME280;39353;42.864;12.014;2023-12-22T00:21:36;96494.23;;;21.49;47.26
52653;BME280;39353;42.864;12.014;2023-12-22T00:24:03;96482.04;;;21.49;47.18
52653;BME280;39353;42.864;12.014;2023-12-22T00:26:30;96467.90;;;21.48;47.05
52653;BME280;39353;42.864;12.014;2023-12-22T00:28:57;96466.80;;;21.47;47.26
52653;BME280;39353;42.864;12.014;2023-12-22T00:31:24;96475.52;;;21.46;46.97
52653;BME280;39353;42.864;12.014;2023-12-22T00:33:51;96500.95;;;21.45;47.10
52653;BME280;39353;42.864;12.014;2023-12-22T00:36:17;96515.61;;;21.45;47.22
52653;BME280;39353;42.864;12.014;2023-12-22T00:38:47;96521.83;;;21.43;47.18
52653;BME280;39353;42.864;12.014;2023-12-22T00:41:13;96524.81;;;21.43;47.26
52653;BME280;39353;42.864;12.014;2023-12-22T00:43:40;96512.63;;;21.42;47.16
52653;BME280;39353;42.864;12.014;2023-12-22T00:46:06;96506.08;;;21.41;47.16
52653;BME280;39353;42.864;12.014;2023-12-22T00:48:33;96515.66;;;21.40;47.24
52653;BME280;39353;42.864;12.014;2023-12-22T00:51:00;96526.05;;;21.37;47.30
52653;BME280;39353;42.864;12.014;2023-12-22T00:53:26;96527.61;;;21.36;47.31
52653;BME280;39353;42.864;12.014;2023-12-22T00:55:53;96527.00;;;21.34;47.38
52653;BME280;39353;42.864;12.014;2023-12-22T00:58:20;96534.77;;;21.33;47.36
52653;BME280;39353;42.864;12.014;2023-12-22T01:00:47;96532.31;;;21.33;47.40
52653;BME280;39353;42.864;12.014;2023-12-22T01:03:14;96522.84;;;21.32;47.40
52653;BME280;39353;42.864;12.014;2023-12-22T01:05:40;96512.50;;;21.31;47.49
52653;BME280;39353;42.864;12.014;2023-12-22T01:08:07;96502.63;;;21.31;47.61
52653;BME280;39353;42.864;12.014;2023-12-22T01:10:34;96492.16;;;21.32;47.46
52653;BME280;39353;42.864;12.014;2023-12-22T01:13:00;96480.13;;;21.29;47.44
52653;BME280;39353;42.864;12.014;2023-12-22T01:15:28;96479.94;;;21.27;47.49
52653;BME280;39353;42.864;12.014;2023-12-22T01:17:54;96485.02;;;21.23;47.51
52653;BME280;39353;42.864;12.014;2023-12-22T01:20:21;96494.00;;;21.22;47.57
52653;BME280;39353;42.864;12.014;2023-12-22T01:22:48;96495.44;;;21.20;47.45
52653;BME280;39353;42.864;12.014;2023-12-22T01:25:14;96492.09;;;21.18;47.53
52653;BME280;39353;42.864;12.014;2023-12-22T01:27:41;96483.06;;;21.16;47.51
52653;BME280;39353;42.864;12.014;2023-12-22T01:30:08;96486.84;;;21.13;47.52
52653;BME280;39353;42.864;12.014;2023-12-22T01:32:35;96486.22;;;21.12;47.65
52653;BME280;39353;42.864;12.014;2023-12-22T01:35:04;96486.63;;;21.09;47.63
52653;BME280;39353;42.864;12.014;2023-12-22T01:37:36;96486.48;;;21.08;47.68
52653;BME280;39353;42.864;12.014;2023-12-22T01:40:04;96496.89;;;21.07;47.61
52653;BME280;39353;42.864;12.014;2023-12-22T01:42:31;96495.20;;;21.05;47.77
52653;BME280;39353;42.864;12.014;2023-12-22T01:44:58;96487.04;;;21.02;47.81
52653;BME280;39353;42.864;12.014;2023-12-22T01:47:25;96490.88;;;21.00;47.81
52653;BME280;39353;42.864;12.014;2023-12-22T01:49:53;96495.42;;;20.97;47.76
52653;BME280;39353;42.864;12.014;2023-12-22T01:52:20;96488.36;;;20.96;47.89
52653;BME280;39353;42.864;12.014;2023-12-22T01:54:47;96471.98;;;20.94;47.93
52653;BME280;39353;42.864;12.014;2023-12-22T01:57:15;96457.16;;;20.91;47.87
52653;BME280;39353;42.864;12.014;2023-12-22T01:59:45;96452.27;;;20.89;47.91
52653;BME280;39353;42.864;12.014;2023-12-22T02:02:13;96435.13;;;20.87;48.14
52653;BME280;39353;42.864;12.014;2023-12-22T02:04:40;96441.55;;;20.86;47.96
52653;BME280;39353;42.864;12.014;2023-12-22T02:07:08;96452.63;;;20.83;48.18
52653;BME280;39353;42.864;12.014;2023-12-22T02:09:36;96452.07;;;20.82;48.22
52653;BME280;39353;42.864;12.014;2023-12-22T02:12:04;96441.91;;;20.81;48.15
52653;BME280;39353;42.864;12.014;2023-12-22T02:14:31;96443.10;;;20.79;48.24
52653;BME280;39353;42.864;12.014;2023-12-22T02:19:40;96448.20;;;20.77;48.18
52653;BME280;39353;42.864;12.014;2023-12-22T02:22:10;96448.64;;;20.76;48.23
52653;BME280;39353;42.864;12.014;2023-12-22T02:24:39;96446.39;;;20.75;48.34
52653;BME280;39353;42.864;12.014;2023-12-22T02:27:17;96458.09;;;20.74;48.25
52653;BME280;39353;42.864;12.014;2023-12-22T02:29:52;96460.74;;;20.73;48.37
52653;BME280;39353;42.864;12.014;2023-12-22T02:32:32;96463.69;;;20.73;48.32
52653;BME280;39353;42.864;12.014;2023-12-22T02:35:03;96474.72;;;20.71;48.43
52653;BME280;39353;42.864;12.014;2023-12-22T02:37:34;96472.59;;;20.70;48.20
52653;BME280;39353;42.864;12.014;2023-12-22T02:40:03;96459.38;;;20.70;48.28
52653;BME280;39353;42.864;12.014;2023-12-22T02:42:32;96449.39;;;20.68;48.26
52653;BME280;39353;42.864;12.014;2023-12-22T02:45:01;96446.96;;;20.66;48.31
52653;BME280;39353;42.864;12.014;2023-12-22T02:47:27;96453.88;;;20.65;48.40
52653;BME280;39353;42.864;12.014;2023-12-22T02:49:54;96461.77;;;20.64;48.48
52653;BME280;39353;42.864;12.014;2023-12-22T02:52:21;96462.82;;;20.62;48.48
52653;BME280;39353;42.864;12.014;2023-12-22T02:54:47;96448.86;;;20.61;48.30
52653;BME280;39353;42.864;12.014;2023-12-22T02:57:14;96451.23;;;20.60;48.44
52653;BME280;39353;42.864;12.014;2023-12-22T02:59:41;96444.83;;;20.58;48.61
52653;BME280;39353;42.864;12.014;2023-12-22T03:02:08;96433.86;;;20.57;48.67
52653;BME280;39353;42.864;12.014;2023-12-22T03:04:34;96425.34;;;20.56;48.70
52653;BME280;39353;42.864;12.014;2023-12-22T03:07:01;96431.92;;;20.55;48.63
52653;BME280;39353;42.864;12.014;2023-12-22T03:09:28;96426.56;;;20.55;48.67
52653;BME280;39353;42.864;12.014;2023-12-22T03:11:54;96415.66;;;20.52;48.57
52653;BME280;39353;42.864;12.014;2023-12-22T03:14:23;96411.60;;;20.51;48.64
52653;BME280;39353;42.864;12.014;2023-12-22T03:16:49;96406.64;;;20.51;48.55
52653;BME280;39353;42.864;12.014;2023-12-22T03:19:16;96399.67;;;20.51;48.58
52653;BME280;39353;42.864;12.014;2023-12-22T03:21:43;96395.84;;;20.50;48.36
52653;BME280;39353;42.864;12.014;2023-12-22T03:24:09;96403.08;;;20.49;48.32
52653;BME280;39353;42.864;12.014;2023-12-22T03:26:36;96415.51;;;20.50;48.51
52653;BME280;39353;42.864;12.014;2023-12-22T03:29:03;96412.89;;;20.49;48.56
52653;BME280;39353;42.864;12.014;2023-12-22T03:31:29;96417.89;;;20.49;48.56
52653;BME280;39353;42.864;12.014;2023-12-22T03:33:56;96411.91;;;20.46;48.59
52653;BME280;39353;42.864;12.014;2023-12-22T03:36:23;96416.52;;;20.45;48.60
52653;BME280;39353;42.864;12.014;2023-12-22T03:38:49;96418.26;;;20.44;48.69
52653;BME280;39353;42.864;12.014;2023-12-22T03:41:16;96394.30;;;20.42;48.73
52653;BME280;39353;42.864;12.014;2023-12-22T03:43:42;96386.86;;;20.41;48.68
52653;BME280;39353;42.864;12.014;2023-12-22T03:46:09;96383.53;;;20.40;48.72
52653;BME280;39353;42.864;12.014;2023-12-22T03:48:36;96386.91;;;20.39;48.75
52653;BME280;39353;42.864;12.014;2023-12-22T03:51:03;96375.99;;;20.38;48.77
52653;BME280;39353;42.864;12.014;2023-12-22T03:53:30;96374.02;;;20.38;48.63
52653;BME280;39353;42.864;12.014;2023-12-22T03:55:57;96361.71;;;20.37;48.55
52653;BME280;39353;42.864;12.014;2023-12-22T03:58:23;96366.89;;;20.37;48.52
52653;BME280;39353;42.864;12.014;2023-12-22T04:00:52;96371.36;;;20.37;48.62
52653;BME280;39353;42.864;12.014;2023-12-22T04:03:19;96369.05;;;20.37;48.58
52653;BME280;39353;42.864;12.014;2023-12-22T04:05:45;96367.14;;;20.36;48.48
52653;BME280;39353;42.864;12.014;2023-12-22T04:08:12;96374.70;;;20.36;48.50
52653;BME280;39353;42.864;12.014;2023-12-22T04:10:39;96402.21;;;20.35;48.63
52653;BME280;39353;42.864;12.014;2023-12-22T04:13:06;96408.76;;;20.35;48.55
52653;BME280;39353;42.864;12.014;2023-12-22T04:15:32;96402.15;;;20.35;48.64
52653;BME280;39353;42.864;12.014;2023-12-22T04:17:59;96398.25;;;20.33;48.76
52653;BME280;39353;42.864;12.014;2023-12-22T04:20:26;96400.30;;;20.31;48.72
52653;BME280;39353;42.864;12.014;2023-12-22T04:22:52;96409.86;;;20.30;48.77
52653;BME280;39353;42.864;12.014;2023-12-22T04:25:19;96409.27;;;20.28;48.90
52653;BME280;39353;42.864;12.014;2023-12-22T04:27:46;96401.54;;;20.27;48.81
52653;BME280;39353;42.864;12.014;2023-12-22T04:30:13;96390.45;;;20.26;48.91
52653;BME280;39353;42.864;12.014;2023-12-22T04:32:40;96388.06;;;20.26;48.78
52653;BME280;39353;42.864;12.014;2023-12-22T04:35:07;96385.34;;;20.25;48.76
52653;BME280;39353;42.864;12.014;2023-12-22T04:37:34;96381.46;;;20.25;48.78
52653;BME280;39353;42.864;12.014;2023-12-22T04:40:01;96375.17;;;20.23;48.79
52653;BME280;39353;42.864;12.014;2023-12-22T04:42:28;96384.60;;;20.23;48.89
52653;BME280;39353;42.864;12.014;2023-12-22T04:44:55;96385.84;;;20.22;48.75
52653;BME280;39353;42.864;12.014;2023-12-22T04:47:22;96384.95;;;20.21;48.89
52653;BME280;39353;42.864;12.014;2023-12-22T04:49:49;96371.27;;;20.21;48.70
52653;BME280;39353;42.864;12.014;2023-12-22T04:52:16;96355.12;;;20.22;48.78
52653;BME280;39353;42.864;12.014;2023-12-22T04:54:43;96348.12;;;20.21;48.72
52653;BME280;39353;42.864;12.014;2023-12-22T04:57:09;96346.63;;;20.20;48.62
52653;BME280;39353;42.864;12.014;2023-12-22T04:59:36;96345.36;;;20.19;48.85
52653;BME280;39353;42.864;12.014;2023-12-22T05:02:03;96348.24;;;20.18;48.90
52653;BME280;39353;42.864;12.014;2023-12-22T05:04:29;96347.18;;;20.16;48.90
52653;BME280;39353;42.864;12.014;2023-12-22T05:06:56;96334.92;;;20.16;48.88
52653;BME280;39353;42.864;12.014;2023-12-22T05:09:24;96324.99;;;20.15;48.92
52653;BME280;39353;42.864;12.014;2023-12-22T05:11:51;96317.97;;;20.15;48.84
52653;BME280;39353;42.864;12.014;2023-12-22T05:14:18;96327.77;;;20.15;48.80
52653;BME280;39353;42.864;12.014;2023-12-22T05:16:45;96344.37;;;20.15;48.96
52653;BME280;39353;42.864;12.014;2023-12-22T05:19:12;96351.43;;;20.14;48.78
52653;BME280;39353;42.864;12.014;2023-12-22T05:21:38;96349.73;;;20.12;48.95
52653;BME280;39353;42.864;12.014;2023-12-22T05:24:05;96362.25;;;20.11;48.95
52653;BME280;39353;42.864;12.014;2023-12-22T05:26:32;96371.75;;;20.09;48.89
52653;BME280;39353;42.864;12.014;2023-12-22T05:28:59;96375.22;;;20.08;48.91
52653;BME280;39353;42.864;12.014;2023-12-22T05:31:25;96377.17;;;20.07;49.05
52653;BME280;39353;42.864;12.014;2023-12-22T05:33:54;96377.07;;;20.05;49.11
52653;BME280;39353;42.864;12.014;2023-12-22T05:36:21;96371.67;;;20.05;49.15
52653;BME280;39353;42.864;12.014;2023-12-22T05:38:47;96370.29;;;20.03;49.22
52653;BME280;39353;42.864;12.014;2023-12-22T05:41:14;96374.27;;;20.03;49.26
52653;BME280;39353;42.864;12.014;2023-12-22T05:43:41;96374.91;;;20.03;49.16
52653;BME280;39353;42.864;12.014;2023-12-22T05:46:07;96375.13;;;20.03;49.20
52653;BME280;39353;42.864;12.014;2023-12-22T05:48:36;96377.67;;;20.02;49.08
52653;BME280;39353;42.864;12.014;2023-12-22T05:51:03;96370.05;;;20.02;49.16
52653;BME280;39353;42.864;12.014;2023-12-22T05:53:33;96370.20;;;20.02;49.10
52653;BME280;39353;42.864;12.014;2023-12-22T05:56:01;96379.95;;;20.01;49.13
52653;BME280;39353;42.864;12.014;2023-12-22T05:58:27;96391.27;;;20.00;49.09
52653;BME280;39353;42.864;12.014;2023-12-22T06:00:54;96410.00;;;20.00;49.09
52653;BME280;39353;42.864;12.014;2023-12-22T06:03:21;96423.94;;;20.01;49.11
52653;BME280;39353;42.864;12.014;2023-12-22T06:05:49;96432.75;;;20.00;49.07
52653;BME280;39353;42.864;12.014;2023-12-22T06:08:16;96441.52;;;20.00;48.98
52653;BME280;39353;42.864;12.014;2023-12-22T06:10:42;96442.92;;;19.99;49.14
52653;BME280;39353;42.864;12.014;2023-12-22T06:13:09;96432.67;;;19.98;49.14
52653;BME280;39353;42.864;12.014;2023-12-22T06:15:36;96434.52;;;19.98;49.09
52653;BME280;39353;42.864;12.014;2023-12-22T06:18:03;96434.68;;;19.97;49.14
52653;BME280;39353;42.864;12.014;2023-12-22T06:20:30;96436.52;;;19.96;49.16
52653;BME280;39353;42.864;12.014;2023-12-22T06:22:57;96443.38;;;19.96;49.21
52653;BME280;39353;42.864;12.014;2023-12-22T06:25:23;96450.59;;;19.98;49.26
52653;BME280;39353;42.864;12.014;2023-12-22T06:27:50;96446.12;;;19.97;49.03
52653;BME280;39353;42.864;12.014;2023-12-22T06:30:17;96457.23;;;19.97;49.14
52653;BME280;39353;42.864;12.014;2023-12-22T06:32:44;96459.66;;;19.96;49.14
52653;BME280;39353;42.864;12.014;2023-12-22T06:35:11;96464.48;;;19.96;49.01
52653;BME280;39353;42.864;12.014;2023-12-22T06:37:37;96471.36;;;19.96;49.11
52653;BME280;39353;42.864;12.014;2023-12-22T06:40:06;96478.63;;;19.95;49.08
52653;BME280;39353;42.864;12.014;2023-12-22T06:42:33;96472.38;;;19.95;49.14
52653;BME280;39353;42.864;12.014;2023-12-22T06:45:00;96463.38;;;19.95;49.07
52653;BME280;39353;42.864;12.014;2023-12-22T06:47:27;96466.51;;;19.93;49.21
52653;BME280;39353;42.864;12.014;2023-12-22T06:49:54;96470.48;;;19.92;49.08
52653;BME280;39353;42.864;12.014;2023-12-22T06:52:20;96475.09;;;19.92;49.05
52653;BME280;39353;42.864;12.014;2023-12-22T06:54:47;96475.96;;;19.92;49.16
52653;BME280;39353;42.864;12.014;2023-12-22T06:57:14;96471.66;;;19.91;49.09
52653;BME280;39353;42.864;12.014;2023-12-22T06:59:41;96479.88;;;19.91;49.07
52653;BME280;39353;42.864;12.014;2023-12-22T07:02:08;96482.52;;;19.91;49.06
52653;BME280;39353;42.864;12.014;2023-12-22T07:04:34;96486.91;;;19.89;49.13
52653;BME280;39353;42.864;12.014;2023-12-22T07:07:01;96476.94;;;19.88;49.24
52653;BME280;39353;42.864;12.014;2023-12-22T07:09:30;96470.06;;;19.88;49.13
52653;BME280;39353;42.864;12.014;2023-12-22T07:11:57;96476.71;;;19.88;49.16
52653;BME280;39353;42.864;12.014;2023-12-22T07:14:25;96480.10;;;19.89;49.20
52653;BME280;39353;42.864;12.014;2023-12-22T07:16:51;96483.00;;;19.88;49.18
52653;BME280;39353;42.864;12.014;2023-12-22T07:19:18;96487.43;;;19.87;49.37
52653;BME280;39353;42.864;12.014;2023-12-22T07:21:45;96489.27;;;19.86;49.31
52653;BME280;39353;42.864;12.014;2023-12-22T07:24:12;96490.46;;;19.85;49.13
52653;BME280;39353;42.864;12.014;2023-12-22T07:26:38;96488.65;;;19.85;49.25
52653;BME280;39353;42.864;12.014;2023-12-22T07:29:05;96491.33;;;19.85;49.51
52653;BME280;39353;42.864;12.014;2023-12-22T07:31:32;96501.42;;;19.86;49.64
52653;BME280;39353;42.864;12.014;2023-12-22T07:33:59;96507.30;;;19.86;49.63
52653;BME280;39353;42.864;12.014;2023-12-22T07:36:25;96507.94;;;19.86;48.61
52653;BME280;39353;42.864;12.014;2023-12-22T07:38:52;96503.81;;;19.77;47.92
52653;BME280;39353;42.864;12.014;2023-12-22T07:41:19;96502.52;;;19.75;48.56
52653;BME280;39353;42.864;12.014;2023-12-22T07:43:46;96504.58;;;19.75;48.72
52653;BME280;39353;42.864;12.014;2023-12-22T07:46:17;96509.33;;;19.75;48.85
52653;BME280;39353;42.864;12.014;2023-12-22T07:48:44;96507.77;;;19.76;48.79
52653;BME280;39353;42.864;12.014;2023-12-22T07:51:11;96516.44;;;19.77;49.17
52653;BME280;39353;42.864;12.014;2023-12-22T07:53:39;96518.13;;;19.80;49.23
52653;BME280;39353;42.864;12.014;2023-12-22T07:56:06;96509.17;;;19.82;49.06
52653;BME280;39353;42.864;12.014;2023-12-22T07:58:33;96511.05;;;19.82;49.08
52653;BME280;39353;42.864;12.014;2023-12-22T08:01:00;96519.25;;;19.82;49.12
52653;BME280;39353;42.864;12.014;2023-12-22T08:03:27;96520.45;;;19.83;49.22
52653;BME280;39353;42.864;12.014;2023-12-22T08:05:54;96520.27;;;19.84;49.41
52653;BME280;39353;42.864;12.014;2023-12-22T08:08:20;96521.25;;;19.87;49.35
52653;BME280;39353;42.864;12.014;2023-12-22T08:10:47;96529.96;;;19.89;49.50
52653;BME280;39353;42.864;12.014;2023-12-22T08:13:15;96528.57;;;19.92;49.46
52653;BME280;39353;42.864;12.014;2023-12-22T08:15:48;96527.48;;;19.92;48.28
52653;BME280;39353;42.864;12.014;2023-12-22T08:18:15;96526.64;;;19.87;48.03
52653;BME280;39353;42.864;12.014;2023-12-22T08:20:42;96539.06;;;19.89;48.55
52653;BME280;39353;42.864;12.014;2023-12-22T08:23:09;96548.52;;;19.91;48.43
52653;BME280;39353;42.864;12.014;2023-12-22T08:25:39;96549.13;;;19.94;48.66
52653;BME280;39353;42.864;12.014;2023-12-22T08:28:08;96535.23;;;19.96;48.64
52653;BME280;39353;42.864;12.014;2023-12-22T08:30:34;96542.20;;;19.99;48.89
52653;BME280;39353;42.864;12.014;2023-12-22T08:33:02;96557.84;;;20.00;48.88
52653;BME280;39353;42.864;12.014;2023-12-22T08:35:29;96557.66;;;20.02;48.99
52653;BME280;39353;42.864;12.014;2023-12-22T08:37:57;96550.26;;;20.03;48.78
52653;BME280;39353;42.864;12.014;2023-12-22T08:40:24;96550.85;;;20.03;48.67
52653;BME280;39353;42.864;12.014;2023-12-22T08:42:53;96556.39;;;20.03;49.11
52653;BME280;39353;42.864;12.014;2023-12-22T08:45:27;96563.62;;;20.03;49.11
52653;BME280;39353;42.864;12.014;2023-12-22T08:47:55;96569.54;;;20.03;48.88
52653;BME280;39353;42.864;12.014;2023-12-22T08:50:22;96568.84;;;20.03;48.78
52653;BME280;39353;42.864;12.014;2023-12-22T08:52:49;96571.13;;;20.03;48.67
52653;BME280;39353;42.864;12.014;2023-12-22T08:55:16;96572.53;;;20.02;48.91
52653;BME280;39353;42.864;12.014;2023-12-22T08:57:43;96575.92;;;19.97;47.13
52653;BME280;39353;42.864;12.014;2023-12-22T09:00:11;96583.60;;;19.85;47.57
52653;BME280;39353;42.864;12.014;2023-12-22T09:02:38;96582.02;;;19.84;47.83
52653;BME280;39353;42.864;12.014;2023-12-22T09:05:05;96584.81;;;19.83;47.95
52653;BME280;39353;42.864;12.014;2023-12-22T09:07:34;96581.63;;;19.81;47.84
52653;BME280;39353;42.864;12.014;2023-12-22T09:10:01;96585.20;;;19.80;47.75
52653;BME280;39353;42.864;12.014;2023-12-22T09:12:28;96585.17;;;19.79;47.72
52653;BME280;39353;42.864;12.014;2023-12-22T09:14:54;96581.09;;;19.78;47.70
52653;BME280;39353;42.864;12.014;2023-12-22T09:17:21;96584.30;;;19.79;47.79
52653;BME280;39353;42.864;12.014;2023-12-22T09:19:51;96583.83;;;19.77;47.66
52653;BME280;39353;42.864;12.014;2023-12-22T09:22:18;96583.64;;;19.78;47.83
52653;BME280;39353;42.864;12.014;2023-12-22T09:24:45;96580.11;;;19.82;48.15
52653;BME280;39353;42.864;12.014;2023-12-22T09:27:12;96573.88;;;19.83;48.11
52653;BME280;39353;42.864;12.014;2023-12-22T09:29:39;96568.13;;;19.84;48.10
52653;BME280;39353;42.864;12.014;2023-12-22T09:32:06;96564.52;;;19.84;48.31
52653;BME280;39353;42.864;12.014;2023-12-22T09:34:33;96567.82;;;19.85;48.30
52653;BME280;39353;42.864;12.014;2023-12-22T09:37:00;96577.26;;;19.86;48.36
52653;BME280;39353;42.864;12.014;2023-12-22T09:39:27;96573.56;;;19.86;48.50
52653;BME280;39353;42.864;12.014;2023-12-22T09:41:55;96575.45;;;19.87;48.69
52653;BME280;39353;42.864;12.014;2023-12-22T09:44:22;96577.75;;;19.90;48.45
52653;BME280;39353;42.864;12.014;2023-12-22T09:46:50;96579.73;;;19.91;48.67
52653;BME280;39353;42.864;12.014;2023-12-22T09:49:18;96584.59;;;19.91;48.74
52653;BME280;39353;42.864;12.014;2023-12-22T09:51:45;96589.01;;;19.92;48.46
52653;BME280;39353;42.864;12.014;2023-12-22T09:54:14;96589.31;;;19.91;48.48
52653;BME280;39353;42.864;12.014;2023-12-22T09:56:42;96590.24;;;19.89;48.54
52653;BME280;39353;42.864;12.014;2023-12-22T09:59:12;96585.77;;;19.87;48.64
52653;BME280;39353;42.864;12.014;2023-12-22T10:01:43;96589.08;;;19.86;48.70
52653;BME280;39353;42.864;12.014;2023-12-22T10:04:12;96590.63;;;19.85;48.71
52653;BME280;39353;42.864;12.014;2023-12-22T10:06:40;96587.79;;;19.85;48.70
52653;BME280;39353;42.864;12.014;2023-12-22T10:09:07;96586.80;;;19.84;48.78
52653;BME280;39353;42.864;12.014;2023-12-22T10:11:39;96584.23;;;19.83;48.69
52653;BME280;39353;42.864;12.014;2023-12-22T10:14:08;96579.80;;;19.83;48.82
52653;BME280;39353;42.864;12.014;2023-12-22T10:16:36;96576.91;;;19.82;48.80
52653;BME280;39353;42.864;12.014;2023-12-22T10:19:05;96577.27;;;19.81;48.76
52653;BME280;39353;42.864;12.014;2023-12-22T10:21:33;96569.81;;;19.82;48.85
52653;BME280;39353;42.864;12.014;2023-12-22T10:24:00;96568.72;;;19.81;48.81
52653;BME280;39353;42.864;12.014;2023-12-22T10:26:28;96574.60;;;19.81;48.90
52653;BME280;39353;42.864;12.014;2023-12-22T10:28:54;96573.70;;;19.80;48.89
52653;BME280;39353;42.864;12.014;2023-12-22T10:31:22;96574.45;;;19.79;48.89
52653;BME280;39353;42.864;12.014;2023-12-22T10:33:49;96583.01;;;19.79;49.00
52653;BME280;39353;42.864;12.014;2023-12-22T10:36:16;96584.73;;;19.78;48.85
52653;BME280;39353;42.864;12.014;2023-12-22T10:38:44;96580.88;;;19.79;48.87
52653;BME280;39353;42.864;12.014;2023-12-22T10:41:11;96584.11;;;19.78;48.91
52653;BME280;39353;42.864;12.014;2023-12-22T10:43:40;96582.41;;;19.77;48.97
52653;BME280;39353;42.864;12.014;2023-12-22T10:46:08;96576.80;;;19.77;48.93
52653;BME280;39353;42.864;12.014;2023-12-22T10:48:35;96573.69;;;19.76;48.97
52653;BME280;39353;42.864;12.014;2023-12-22T10:51:02;96575.04;;;19.76;48.93
52653;BME280;39353;42.864;12.014;2023-12-22T10:53:29;96577.04;;;19.75;49.04
52653;BME280;39353;42.864;12.014;2023-12-22T10:55:57;96583.53;;;19.76;48.86
52653;BME280;39353;42.864;12.014;2023-12-22T10:58:24;96587.44;;;19.75;49.09
52653;BME280;39353;42.864;12.014;2023-12-22T11:00:53;96585.59;;;19.75;49.00
52653;BME280;39353;42.864;12.014;2023-12-22T11:03:23;96580.02;;;19.75;49.00
52653;BME280;39353;42.864;12.014;2023-12-22T11:05:54;96573.76;;;19.74;48.98
52653;BME280;39353;42.864;12.014;2023-12-22T11:08:26;96570.09;;;19.73;48.99
52653;BME280;39353;42.864;12.014;2023-12-22T11:10:57;96556.30;;;19.72;48.99
52653;BME280;39353;42.864;12.014;2023-12-22T11:13:25;96547.27;;;19.72;49.06
52653;BME280;39353;42.864;12.014;2023-12-22T11:15:52;96541.48;;;19.72;49.05
52653;BME280;39353;42.864;12.014;2023-12-22T11:18:20;96543.94;;;19.72;49.00
52653;BME280;39353;42.864;12.014;2023-12-22T11:20:48;96539.34;;;19.71;48.92
52653;BME280;39353;42.864;12.014;2023-12-22T11:23:17;96534.20;;;19.70;49.06
52653;BME280;39353;42.864;12.014;2023-12-22T11:25:50;96534.61;;;19.71;48.99
52653;BME280;39353;42.864;12.014;2023-12-22T11:28:20;96527.80;;;19.70;49.12
52653;BME280;39353;42.864;12.014;2023-12-22T11:30:51;96525.89;;;19.70;49.13
52653;BME280;39353;42.864;12.014;2023-12-22T11:33:20;96523.55;;;19.70;49.02
52653;BME280;39353;42.864;12.014;2023-12-22T11:35:50;96523.73;;;19.68;49.00
52653;BME280;39353;42.864;12.014;2023-12-22T11:38:18;96521.43;;;19.68;49.14
52653;BME280;39353;42.864;12.014;2023-12-22T11:40:45;96521.94;;;19.68;49.03
52653;BME280;39353;42.864;12.014;2023-12-22T11:43:12;96521.16;;;19.67;49.04
52653;BME280;39353;42.864;12.014;2023-12-22T11:45:41;96517.87;;;19.66;49.11
52653;BME280;39353;42.864;12.014;2023-12-22T11:48:10;96518.72;;;19.66;49.16
52653;BME280;39353;42.864;12.014;2023-12-22T11:50:37;96514.86;;;19.66;49.14
52653;BME280;39353;42.864;12.014;2023-12-22T11:53:25;96512.78;;;19.65;49.05
52653;BME280;39353;42.864;12.014;2023-12-22T11:56:03;96509.41;;;19.65;49.08
52653;BME280;39353;42.864;12.014;2023-12-22T12:01:10;96495.79;;;19.65;49.03
52653;BME280;39353;42.864;12.014;2023-12-22T12:03:48;96499.33;;;19.64;48.94
52653;BME280;39353;42.864;12.014;2023-12-22T12:06:15;96508.08;;;19.64;48.94
52653;BME280;39353;42.864;12.014;2023-12-22T12:08:44;96508.84;;;19.64;48.37
52653;BME280;39353;42.864;12.014;2023-12-22T12:11:11;96509.96;;;19.62;48.67
52653;BME280;39353;42.864;12.014;2023-12-22T12:13:42;96510.42;;;19.62;48.78
52653;BME280;39353;42.864;12.014;2023-12-22T12:16:13;96505.97;;;19.62;49.11
52653;BME280;39353;42.864;12.014;2023-12-22T12:18:41;96502.80;;;19.62;48.95
52653;BME280;39353;42.864;12.014;2023-12-22T12:21:10;96507.59;;;19.61;48.72
52653;BME280;39353;42.864;12.014;2023-12-22T12:23:38;96507.27;;;19.61;49.04
52653;BME280;39353;42.864;12.014;2023-12-22T12:26:08;96505.89;;;19.61;48.56
52653;BME280;39353;42.864;12.014;2023-12-22T12:28:36;96508.06;;;19.61;48.73
52653;BME280;39353;42.864;12.014;2023-12-22T12:31:08;96508.65;;;19.60;48.81
52653;BME280;39353;42.864;12.014;2023-12-22T12:33:35;96507.33;;;19.62;48.84
52653;BME280;39353;42.864;12.014;2023-12-22T12:36:03;96503.77;;;19.64;49.02
52653;BME280;39353;42.864;12.014;2023-12-22T12:38:54;96496.87;;;19.64;48.97
52653;BME280;39353;42.864;12.014;2023-12-22T12:41:30;96498.40;;;19.62;48.58
52653;BME280;39353;42.864;12.014;2023-12-22T12:44:03;96487.11;;;19.60;48.75
52653;BME280;39353;42.864;12.014;2023-12-22T12:46:33;96485.01;;;19.58;48.50
52653;BME280;39353;42.864;12.014;2023-12-22T12:49:04;96484.09;;;19.58;48.72
52653;BME280;39353;42.864;12.014;2023-12-22T12:51:39;96486.45;;;19.57;48.67
52653;BME280;39353;42.864;12.014;2023-12-22T12:54:08;96481.98;;;19.57;48.72
52653;BME280;39353;42.864;12.014;2023-12-22T12:56:42;96472.75;;;19.55;48.58
52653;BME280;39353;42.864;12.014;2023-12-22T12:59:11;96475.46;;;19.55;48.91